sensor_id;sensor_type;location;lat;lon;timestamp;P1;durP1;ratioP1;P2;durP2;ratioP2
43857;SDS011;29507;51.284;5.758;2022-11-20T00:00:03;16.98;;;6.82;;
43857;SDS011;29507;51.284;5.758;2022-11-20T00:02:29;14.77;;;6.63;;
43857;SDS011;29507;51.284;5.758;2022-11-20T00:04:55;15.60;;;6.63;;
43857;SDS011;29507;51.284;5.758;2022-11-20T00:07:21;14.25;;;6.65;;
43857;SDS011;29507;51.284;5.758;2022-11-20T00:09:46;13.35;;;6.72;;
43857;SDS011;29507;51.284;5.758;2022-11-20T00:12:12;14.55;;;7.00;;
43857;SDS011;29507;51.284;5.758;2022-11-20T00:14:38;17.08;;;7.18;;
43857;SDS011;29507;51.284;5.758;2022-11-20T00:17:04;15.60;;;6.82;;
43857;SDS011;29507;51.284;5.758;2022-11-20T00:19:29;13.63;;;6.88;;
43857;SDS011;29507;51.284;5.758;2022-11-20T00:21:55;15.13;;;6.53;;
43857;SDS011;29507;51.284;5.758;2022-11-20T00:24:20;15.88;;;7.78;;
43857;SDS011;29507;51.284;5.758;2022-11-20T00:26:46;15.98;;;7.63;;
43857;SDS011;29507;51.284;5.758;2022-11-20T00:29:12;15.55;;;7.03;;
43857;SDS011;29507;51.284;5.758;2022-11-20T00:31:37;17.08;;;7.20;;
43857;SDS011;29507;51.284;5.758;2022-11-20T00:34:03;14.15;;;6.70;;
43857;SDS011;29507;51.284;5.758;2022-11-20T00:36:29;16.52;;;7.25;;
43857;SDS011;29507;51.284;5.758;2022-11-20T00:38:58;14.15;;;7.43;;
43857;SDS011;29507;51.284;5.758;2022-11-20T00:41:24;13.15;;;6.20;;
43857;SDS011;29507;51.284;5.758;2022-11-20T00:43:51;13.30;;;6.55;;
43857;SDS011;29507;51.284;5.758;2022-11-20T00:46:19;16.80;;;7.38;;
43857;SDS011;29507;51.284;5.758;2022-11-20T00:48:49;14.35;;;5.97;;
43857;SDS011;29507;51.284;5.758;2022-11-20T00:51:16;20.20;;;7.63;;
43857;SDS011;29507;51.284;5.758;2022-11-20T00:53:43;17.00;;;7.63;;
43857;SDS011;29507;51.284;5.758;2022-11-20T00:56:12;18.08;;;7.65;;
43857;SDS011;29507;51.284;5.758;2022-11-20T00:58:40;14.50;;;6.72;;
43857;SDS011;29507;51.284;5.758;2022-11-20T01:01:08;17.33;;;7.15;;
43857;SDS011;29507;51.284;5.758;2022-11-20T01:03:36;20.42;;;8.25;;
43857;SDS011;29507;51.284;5.758;2022-11-20T01:06:07;15.63;;;6.85;;
43857;SDS011;29507;51.284;5.758;2022-11-20T01:08:36;16.33;;;7.82;;
43857;SDS011;29507;51.284;5.758;2022-11-20T01:11:04;14.57;;;6.35;;
43857;SDS011;29507;51.284;5.758;2022-11-20T01:13:32;12.82;;;7.00;;
43857;SDS011;29507;51.284;5.758;2022-11-20T01:18:40;18.17;;;7.55;;
43857;SDS011;29507;51.284;5.758;2022-11-20T01:21:09;17.67;;;7.45;;
43857;SDS011;29507;51.284;5.758;2022-11-20T01:23:38;14.07;;;6.43;;
43857;SDS011;29507;51.284;5.758;2022-11-20T01:26:06;15.63;;;7.03;;
43857;SDS011;29507;51.284;5.758;2022-11-20T01:28:34;17.95;;;7.50;;
43857;SDS011;29507;51.284;5.758;2022-11-20T01:31:00;17.02;;;7.95;;
43857;SDS011;29507;51.284;5.758;2022-11-20T01:33:26;14.68;;;7.35;;
43857;SDS011;29507;51.284;5.758;2022-11-20T01:35:52;14.50;;;6.88;;
43857;SDS011;29507;51.284;5.758;2022-11-20T01:38:18;18.75;;;8.00;;
43857;SDS011;29507;51.284;5.758;2022-11-20T01:40:45;14.68;;;6.57;;
43857;SDS011;29507;51.284;5.758;2022-11-20T01:43:19;15.98;;;7.40;;
43857;SDS011;29507;51.284;5.758;2022-11-20T01:48:33;14.07;;;7.15;;
43857;SDS011;29507;51.284;5.758;2022-11-20T01:51:12;21.35;;;9.25;;
43857;SDS011;29507;51.284;5.758;2022-11-20T01:53:47;14.52;;;6.53;;
43857;SDS011;29507;51.284;5.758;2022-11-20T01:56:14;19.08;;;8.20;;
43857;SDS011;29507;51.284;5.758;2022-11-20T01:58:42;18.52;;;7.65;;
43857;SDS011;29507;51.284;5.758;2022-11-20T02:01:13;16.02;;;8.23;;
43857;SDS011;29507;51.284;5.758;2022-11-20T02:03:39;16.95;;;7.43;;
43857;SDS011;29507;51.284;5.758;2022-11-20T02:08:38;17.20;;;7.60;;
43857;SDS011;29507;51.284;5.758;2022-11-20T02:11:04;16.15;;;8.63;;
43857;SDS011;29507;51.284;5.758;2022-11-20T02:13:29;18.25;;;7.05;;
43857;SDS011;29507;51.284;5.758;2022-11-20T02:18:47;15.48;;;7.68;;
43857;SDS011;29507;51.284;5.758;2022-11-20T02:21:15;19.08;;;8.48;;
43857;SDS011;29507;51.284;5.758;2022-11-20T02:23:59;19.98;;;8.23;;
43857;SDS011;29507;51.284;5.758;2022-11-20T02:28:53;15.60;;;6.82;;
43857;SDS011;29507;51.284;5.758;2022-11-20T02:31:19;19.02;;;7.90;;
43857;SDS011;29507;51.284;5.758;2022-11-20T02:33:45;20.10;;;7.55;;
43857;SDS011;29507;51.284;5.758;2022-11-20T02:36:11;19.25;;;8.05;;
43857;SDS011;29507;51.284;5.758;2022-11-20T02:38:40;16.58;;;8.05;;
43857;SDS011;29507;51.284;5.758;2022-11-20T02:41:06;16.50;;;7.50;;
43857;SDS011;29507;51.284;5.758;2022-11-20T02:43:32;17.05;;;8.32;;
43857;SDS011;29507;51.284;5.758;2022-11-20T02:45:58;15.57;;;7.57;;
43857;SDS011;29507;51.284;5.758;2022-11-20T02:48:23;17.35;;;8.02;;
43857;SDS011;29507;51.284;5.758;2022-11-20T02:50:49;19.10;;;7.57;;
43857;SDS011;29507;51.284;5.758;2022-11-20T02:53:15;18.67;;;7.55;;
43857;SDS011;29507;51.284;5.758;2022-11-20T02:55:41;26.92;;;8.13;;
43857;SDS011;29507;51.284;5.758;2022-11-20T02:58:06;17.17;;;7.95;;
43857;SDS011;29507;51.284;5.758;2022-11-20T03:00:32;18.90;;;7.90;;
43857;SDS011;29507;51.284;5.758;2022-11-20T03:02:58;15.23;;;7.50;;
43857;SDS011;29507;51.284;5.758;2022-11-20T03:05:24;14.07;;;7.18;;
43857;SDS011;29507;51.284;5.758;2022-11-20T03:07:49;19.88;;;7.18;;
43857;SDS011;29507;51.284;5.758;2022-11-20T03:10:15;14.98;;;7.70;;
43857;SDS011;29507;51.284;5.758;2022-11-20T03:12:40;17.38;;;7.60;;
43857;SDS011;29507;51.284;5.758;2022-11-20T03:15:06;14.05;;;6.30;;
43857;SDS011;29507;51.284;5.758;2022-11-20T03:17:32;16.17;;;7.63;;
43857;SDS011;29507;51.284;5.758;2022-11-20T03:19:58;16.48;;;7.47;;
43857;SDS011;29507;51.284;5.758;2022-11-20T03:22:23;15.40;;;7.00;;
43857;SDS011;29507;51.284;5.758;2022-11-20T03:24:49;17.20;;;7.45;;
43857;SDS011;29507;51.284;5.758;2022-11-20T03:27:14;17.33;;;8.07;;
43857;SDS011;29507;51.284;5.758;2022-11-20T03:29:40;15.90;;;7.93;;
43857;SDS011;29507;51.284;5.758;2022-11-20T03:32:05;20.58;;;8.35;;
43857;SDS011;29507;51.284;5.758;2022-11-20T03:34:31;16.48;;;7.78;;
43857;SDS011;29507;51.284;5.758;2022-11-20T03:36:56;16.02;;;7.68;;
43857;SDS011;29507;51.284;5.758;2022-11-20T03:39:22;16.25;;;7.90;;
43857;SDS011;29507;51.284;5.758;2022-11-20T03:41:48;16.60;;;6.93;;
43857;SDS011;29507;51.284;5.758;2022-11-20T03:44:13;14.93;;;7.78;;
43857;SDS011;29507;51.284;5.758;2022-11-20T03:46:39;15.32;;;7.63;;
43857;SDS011;29507;51.284;5.758;2022-11-20T03:49:04;13.85;;;6.55;;
43857;SDS011;29507;51.284;5.758;2022-11-20T03:51:34;12.30;;;6.68;;
43857;SDS011;29507;51.284;5.758;2022-11-20T03:54:02;17.50;;;6.63;;
43857;SDS011;29507;51.284;5.758;2022-11-20T03:56:31;16.77;;;7.25;;
43857;SDS011;29507;51.284;5.758;2022-11-20T03:58:58;15.75;;;7.57;;
43857;SDS011;29507;51.284;5.758;2022-11-20T04:01:25;13.02;;;7.28;;
43857;SDS011;29507;51.284;5.758;2022-11-20T04:03:52;17.92;;;6.93;;
43857;SDS011;29507;51.284;5.758;2022-11-20T04:06:24;17.98;;;7.57;;
43857;SDS011;29507;51.284;5.758;2022-11-20T04:08:51;15.98;;;7.80;;
43857;SDS011;29507;51.284;5.758;2022-11-20T04:11:20;16.35;;;7.13;;
43857;SDS011;29507;51.284;5.758;2022-11-20T04:13:57;14.40;;;6.68;;
43857;SDS011;29507;51.284;5.758;2022-11-20T04:16:28;15.75;;;8.05;;
43857;SDS011;29507;51.284;5.758;2022-11-20T04:18:56;14.45;;;7.15;;
43857;SDS011;29507;51.284;5.758;2022-11-20T04:21:23;16.05;;;8.20;;
43857;SDS011;29507;51.284;5.758;2022-11-20T04:23:50;17.98;;;6.65;;
43857;SDS011;29507;51.284;5.758;2022-11-20T04:26:17;14.65;;;6.90;;
43857;SDS011;29507;51.284;5.758;2022-11-20T04:28:43;21.15;;;7.63;;
43857;SDS011;29507;51.284;5.758;2022-11-20T04:31:10;15.90;;;7.25;;
43857;SDS011;29507;51.284;5.758;2022-11-20T04:33:43;17.98;;;6.95;;
43857;SDS011;29507;51.284;5.758;2022-11-20T04:36:13;15.15;;;7.07;;
43857;SDS011;29507;51.284;5.758;2022-11-20T04:38:40;13.73;;;6.90;;
43857;SDS011;29507;51.284;5.758;2022-11-20T04:41:07;17.95;;;7.43;;
43857;SDS011;29507;51.284;5.758;2022-11-20T04:43:37;14.45;;;7.55;;
43857;SDS011;29507;51.284;5.758;2022-11-20T04:46:03;13.38;;;6.95;;
43857;SDS011;29507;51.284;5.758;2022-11-20T04:48:29;13.35;;;6.70;;
43857;SDS011;29507;51.284;5.758;2022-11-20T04:50:55;16.05;;;7.10;;
43857;SDS011;29507;51.284;5.758;2022-11-20T04:53:21;15.55;;;7.80;;
43857;SDS011;29507;51.284;5.758;2022-11-20T04:55:47;19.23;;;7.55;;
43857;SDS011;29507;51.284;5.758;2022-11-20T04:58:13;18.40;;;8.00;;
43857;SDS011;29507;51.284;5.758;2022-11-20T05:00:39;14.70;;;7.35;;
43857;SDS011;29507;51.284;5.758;2022-11-20T05:03:05;13.60;;;7.90;;
43857;SDS011;29507;51.284;5.758;2022-11-20T05:05:31;15.10;;;7.35;;
43857;SDS011;29507;51.284;5.758;2022-11-20T05:07:58;18.70;;;7.80;;
43857;SDS011;29507;51.284;5.758;2022-11-20T05:10:24;17.50;;;7.90;;
43857;SDS011;29507;51.284;5.758;2022-11-20T05:12:50;14.85;;;7.45;;
43857;SDS011;29507;51.284;5.758;2022-11-20T05:15:16;14.40;;;7.78;;
43857;SDS011;29507;51.284;5.758;2022-11-20T05:17:46;14.77;;;8.15;;
43857;SDS011;29507;51.284;5.758;2022-11-20T05:20:15;15.27;;;7.05;;
43857;SDS011;29507;51.284;5.758;2022-11-20T05:22:41;14.07;;;7.22;;
43857;SDS011;29507;51.284;5.758;2022-11-20T05:25:07;19.95;;;8.05;;
43857;SDS011;29507;51.284;5.758;2022-11-20T05:27:33;17.65;;;8.07;;
43857;SDS011;29507;51.284;5.758;2022-11-20T05:29:59;15.18;;;6.90;;
43857;SDS011;29507;51.284;5.758;2022-11-20T05:32:24;13.40;;;6.53;;
43857;SDS011;29507;51.284;5.758;2022-11-20T05:34:50;16.25;;;7.80;;
43857;SDS011;29507;51.284;5.758;2022-11-20T05:37:19;15.00;;;6.72;;
43857;SDS011;29507;51.284;5.758;2022-11-20T05:39:44;16.20;;;6.75;;
43857;SDS011;29507;51.284;5.758;2022-11-20T05:42:10;14.25;;;7.35;;
43857;SDS011;29507;51.284;5.758;2022-11-20T05:44:54;18.17;;;8.02;;
43857;SDS011;29507;51.284;5.758;2022-11-20T05:47:20;13.63;;;7.20;;
43857;SDS011;29507;51.284;5.758;2022-11-20T05:49:45;17.80;;;7.22;;
43857;SDS011;29507;51.284;5.758;2022-11-20T05:52:11;15.05;;;7.13;;
43857;SDS011;29507;51.284;5.758;2022-11-20T05:54:36;19.70;;;7.47;;
43857;SDS011;29507;51.284;5.758;2022-11-20T05:57:02;15.23;;;6.88;;
43857;SDS011;29507;51.284;5.758;2022-11-20T05:59:28;15.90;;;7.85;;
43857;SDS011;29507;51.284;5.758;2022-11-20T06:01:53;17.92;;;7.38;;
43857;SDS011;29507;51.284;5.758;2022-11-20T06:04:19;17.58;;;7.78;;
43857;SDS011;29507;51.284;5.758;2022-11-20T06:06:44;16.88;;;8.73;;
43857;SDS011;29507;51.284;5.758;2022-11-20T06:09:10;18.23;;;8.43;;
43857;SDS011;29507;51.284;5.758;2022-11-20T06:11:35;17.52;;;8.43;;
43857;SDS011;29507;51.284;5.758;2022-11-20T06:14:01;16.02;;;8.18;;
43857;SDS011;29507;51.284;5.758;2022-11-20T06:16:26;16.30;;;7.43;;
43857;SDS011;29507;51.284;5.758;2022-11-20T06:18:52;18.83;;;7.82;;
43857;SDS011;29507;51.284;5.758;2022-11-20T06:21:18;16.15;;;7.53;;
43857;SDS011;29507;51.284;5.758;2022-11-20T06:23:46;16.80;;;8.77;;
43857;SDS011;29507;51.284;5.758;2022-11-20T06:26:13;18.67;;;8.52;;
43857;SDS011;29507;51.284;5.758;2022-11-20T06:28:40;16.00;;;8.27;;
43857;SDS011;29507;51.284;5.758;2022-11-20T06:31:06;17.17;;;7.80;;
43857;SDS011;29507;51.284;5.758;2022-11-20T06:33:32;14.25;;;7.45;;
43857;SDS011;29507;51.284;5.758;2022-11-20T06:35:59;18.83;;;9.15;;
43857;SDS011;29507;51.284;5.758;2022-11-20T06:38:26;16.23;;;8.00;;
43857;SDS011;29507;51.284;5.758;2022-11-20T06:40:52;18.73;;;8.48;;
43857;SDS011;29507;51.284;5.758;2022-11-20T06:43:18;17.95;;;8.93;;
43857;SDS011;29507;51.284;5.758;2022-11-20T06:45:44;19.42;;;8.50;;
43857;SDS011;29507;51.284;5.758;2022-11-20T06:48:10;14.13;;;7.47;;
43857;SDS011;29507;51.284;5.758;2022-11-20T06:50:38;16.02;;;7.40;;
43857;SDS011;29507;51.284;5.758;2022-11-20T06:53:04;20.13;;;7.53;;
43857;SDS011;29507;51.284;5.758;2022-11-20T06:55:30;20.05;;;7.95;;
43857;SDS011;29507;51.284;5.758;2022-11-20T06:57:56;16.15;;;9.00;;
43857;SDS011;29507;51.284;5.758;2022-11-20T07:00:22;15.50;;;7.45;;
43857;SDS011;29507;51.284;5.758;2022-11-20T07:02:48;17.10;;;8.43;;
43857;SDS011;29507;51.284;5.758;2022-11-20T07:05:14;17.65;;;8.02;;
43857;SDS011;29507;51.284;5.758;2022-11-20T07:07:40;18.67;;;8.35;;
43857;SDS011;29507;51.284;5.758;2022-11-20T07:10:06;17.88;;;8.70;;
43857;SDS011;29507;51.284;5.758;2022-11-20T07:12:32;15.90;;;7.45;;
43857;SDS011;29507;51.284;5.758;2022-11-20T07:14:57;19.48;;;8.93;;
43857;SDS011;29507;51.284;5.758;2022-11-20T07:17:23;19.05;;;7.55;;
43857;SDS011;29507;51.284;5.758;2022-11-20T07:19:49;15.27;;;7.72;;
43857;SDS011;29507;51.284;5.758;2022-11-20T07:22:14;15.48;;;7.50;;
43857;SDS011;29507;51.284;5.758;2022-11-20T07:24:40;18.58;;;7.93;;
43857;SDS011;29507;51.284;5.758;2022-11-20T07:27:05;17.50;;;8.20;;
43857;SDS011;29507;51.284;5.758;2022-11-20T07:29:31;16.98;;;8.52;;
43857;SDS011;29507;51.284;5.758;2022-11-20T07:31:56;19.00;;;8.75;;
43857;SDS011;29507;51.284;5.758;2022-11-20T07:34:22;16.83;;;7.53;;
43857;SDS011;29507;51.284;5.758;2022-11-20T07:36:48;14.85;;;8.20;;
43857;SDS011;29507;51.284;5.758;2022-11-20T07:39:14;18.02;;;8.15;;
43857;SDS011;29507;51.284;5.758;2022-11-20T07:41:39;15.77;;;8.55;;
43857;SDS011;29507;51.284;5.758;2022-11-20T07:44:05;15.10;;;7.65;;
43857;SDS011;29507;51.284;5.758;2022-11-20T07:46:30;20.27;;;8.32;;
43857;SDS011;29507;51.284;5.758;2022-11-20T07:48:56;14.35;;;8.57;;
43857;SDS011;29507;51.284;5.758;2022-11-20T07:51:22;18.02;;;8.68;;
43857;SDS011;29507;51.284;5.758;2022-11-20T07:53:52;17.50;;;7.80;;
43857;SDS011;29507;51.284;5.758;2022-11-20T07:56:18;16.90;;;8.15;;
43857;SDS011;29507;51.284;5.758;2022-11-20T07:58:43;15.45;;;8.00;;
43857;SDS011;29507;51.284;5.758;2022-11-20T08:01:09;22.55;;;8.98;;
43857;SDS011;29507;51.284;5.758;2022-11-20T08:03:35;19.30;;;9.07;;
43857;SDS011;29507;51.284;5.758;2022-11-20T08:06:04;15.00;;;8.00;;
43857;SDS011;29507;51.284;5.758;2022-11-20T08:08:30;20.85;;;9.75;;
43857;SDS011;29507;51.284;5.758;2022-11-20T08:10:59;19.05;;;9.93;;
43857;SDS011;29507;51.284;5.758;2022-11-20T08:13:43;21.48;;;9.80;;
43857;SDS011;29507;51.284;5.758;2022-11-20T08:16:28;19.52;;;9.93;;
43857;SDS011;29507;51.284;5.758;2022-11-20T08:18:53;20.08;;;9.02;;
43857;SDS011;29507;51.284;5.758;2022-11-20T08:21:19;18.73;;;9.43;;
43857;SDS011;29507;51.284;5.758;2022-11-20T08:23:45;22.42;;;10.07;;
43857;SDS011;29507;51.284;5.758;2022-11-20T08:26:10;18.58;;;9.20;;
43857;SDS011;29507;51.284;5.758;2022-11-20T08:28:36;20.33;;;9.40;;
43857;SDS011;29507;51.284;5.758;2022-11-20T08:31:02;22.00;;;9.30;;
43857;SDS011;29507;51.284;5.758;2022-11-20T08:33:29;23.10;;;10.25;;
43857;SDS011;29507;51.284;5.758;2022-11-20T08:35:58;24.58;;;10.40;;
43857;SDS011;29507;51.284;5.758;2022-11-20T08:38:25;26.73;;;12.07;;
43857;SDS011;29507;51.284;5.758;2022-11-20T08:40:51;32.88;;;11.82;;
43857;SDS011;29507;51.284;5.758;2022-11-20T08:43:35;25.52;;;11.00;;
43857;SDS011;29507;51.284;5.758;2022-11-20T08:46:01;24.02;;;10.57;;
43857;SDS011;29507;51.284;5.758;2022-11-20T08:48:26;26.83;;;11.07;;
43857;SDS011;29507;51.284;5.758;2022-11-20T08:50:52;27.52;;;11.52;;
43857;SDS011;29507;51.284;5.758;2022-11-20T08:53:17;37.17;;;12.63;;
43857;SDS011;29507;51.284;5.758;2022-11-20T08:55:43;40.97;;;15.38;;
43857;SDS011;29507;51.284;5.758;2022-11-20T08:58:08;43.53;;;14.80;;
43857;SDS011;29507;51.284;5.758;2022-11-20T09:00:34;41.95;;;15.55;;
43857;SDS011;29507;51.284;5.758;2022-11-20T09:03:00;44.55;;;14.98;;
43857;SDS011;29507;51.284;5.758;2022-11-20T09:05:26;51.00;;;16.70;;
43857;SDS011;29507;51.284;5.758;2022-11-20T09:07:55;44.38;;;15.95;;
43857;SDS011;29507;51.284;5.758;2022-11-20T09:10:22;51.85;;;17.55;;
43857;SDS011;29507;51.284;5.758;2022-11-20T09:12:51;40.20;;;15.20;;
43857;SDS011;29507;51.284;5.758;2022-11-20T09:15:17;35.08;;;14.45;;
43857;SDS011;29507;51.284;5.758;2022-11-20T09:17:53;42.13;;;14.85;;
43857;SDS011;29507;51.284;5.758;2022-11-20T09:20:20;40.00;;;15.70;;
43857;SDS011;29507;51.284;5.758;2022-11-20T09:22:45;35.47;;;13.05;;
43857;SDS011;29507;51.284;5.758;2022-11-20T09:25:11;39.78;;;15.75;;
43857;SDS011;29507;51.284;5.758;2022-11-20T09:27:37;43.97;;;15.05;;
43857;SDS011;29507;51.284;5.758;2022-11-20T09:30:03;44.70;;;14.88;;
43857;SDS011;29507;51.284;5.758;2022-11-20T09:32:29;39.35;;;15.82;;
43857;SDS011;29507;51.284;5.758;2022-11-20T09:34:55;43.85;;;15.88;;
43857;SDS011;29507;51.284;5.758;2022-11-20T09:37:20;38.60;;;14.90;;
43857;SDS011;29507;51.284;5.758;2022-11-20T09:39:46;39.80;;;15.88;;
43857;SDS011;29507;51.284;5.758;2022-11-20T09:47:31;39.25;;;15.00;;
43857;SDS011;29507;51.284;5.758;2022-11-20T09:50:17;41.90;;;15.05;;
43857;SDS011;29507;51.284;5.758;2022-11-20T09:55:29;36.83;;;13.27;;
43857;SDS011;29507;51.284;5.758;2022-11-20T09:57:56;39.03;;;14.75;;
43857;SDS011;29507;51.284;5.758;2022-11-20T10:00:23;38.97;;;14.52;;
43857;SDS011;29507;51.284;5.758;2022-11-20T10:03:10;33.92;;;13.48;;
43857;SDS011;29507;51.284;5.758;2022-11-20T10:05:43;33.47;;;14.48;;
43857;SDS011;29507;51.284;5.758;2022-11-20T10:11:09;34.03;;;13.27;;
43857;SDS011;29507;51.284;5.758;2022-11-20T10:14:13;30.25;;;13.38;;
43857;SDS011;29507;51.284;5.758;2022-11-20T10:25:20;36.05;;;12.60;;
43857;SDS011;29507;51.284;5.758;2022-11-20T10:30:29;32.83;;;13.77;;
43857;SDS011;29507;51.284;5.758;2022-11-20T10:33:03;32.97;;;13.80;;
43857;SDS011;29507;51.284;5.758;2022-11-20T10:35:35;33.42;;;12.70;;
43857;SDS011;29507;51.284;5.758;2022-11-20T10:38:10;32.05;;;13.88;;
43857;SDS011;29507;51.284;5.758;2022-11-20T10:40:43;36.40;;;13.90;;
43857;SDS011;29507;51.284;5.758;2022-11-20T10:43:18;35.50;;;13.75;;
43857;SDS011;29507;51.284;5.758;2022-11-20T10:48:38;36.65;;;13.30;;
43857;SDS011;29507;51.284;5.758;2022-11-20T10:51:15;30.33;;;12.57;;
43857;SDS011;29507;51.284;5.758;2022-11-20T10:53:53;32.33;;;12.48;;
43857;SDS011;29507;51.284;5.758;2022-11-20T10:56:45;36.75;;;13.63;;
43857;SDS011;29507;51.284;5.758;2022-11-20T11:01:50;33.78;;;14.48;;
43857;SDS011;29507;51.284;5.758;2022-11-20T11:04:58;31.60;;;12.85;;
43857;SDS011;29507;51.284;5.758;2022-11-20T11:07:15;36.63;;;13.48;;
43857;SDS011;29507;51.284;5.758;2022-11-20T11:09:55;34.65;;;13.50;;
43857;SDS011;29507;51.284;5.758;2022-11-20T11:12:22;36.38;;;13.70;;
43857;SDS011;29507;51.284;5.758;2022-11-20T11:14:54;32.00;;;12.98;;
43857;SDS011;29507;51.284;5.758;2022-11-20T11:20:06;32.08;;;12.98;;
43857;SDS011;29507;51.284;5.758;2022-11-20T11:25:12;30.60;;;11.70;;
43857;SDS011;29507;51.284;5.758;2022-11-20T11:27:47;35.28;;;13.80;;
43857;SDS011;29507;51.284;5.758;2022-11-20T11:30:15;31.90;;;12.80;;
43857;SDS011;29507;51.284;5.758;2022-11-20T11:32:42;28.05;;;12.32;;
43857;SDS011;29507;51.284;5.758;2022-11-20T11:35:27;36.90;;;14.23;;
43857;SDS011;29507;51.284;5.758;2022-11-20T11:37:54;29.10;;;12.57;;
43857;SDS011;29507;51.284;5.758;2022-11-20T11:40:28;32.05;;;12.55;;
43857;SDS011;29507;51.284;5.758;2022-11-20T11:43:01;29.80;;;12.55;;
43857;SDS011;29507;51.284;5.758;2022-11-20T11:45:30;30.02;;;12.10;;
43857;SDS011;29507;51.284;5.758;2022-11-20T11:47:56;29.38;;;11.60;;
43857;SDS011;29507;51.284;5.758;2022-11-20T11:50:26;29.45;;;11.50;;
43857;SDS011;29507;51.284;5.758;2022-11-20T11:55:58;30.50;;;12.73;;
43857;SDS011;29507;51.284;5.758;2022-11-20T11:58:42;32.30;;;12.73;;
43857;SDS011;29507;51.284;5.758;2022-11-20T12:01:22;28.95;;;12.52;;
43857;SDS011;29507;51.284;5.758;2022-11-20T12:06:45;34.22;;;12.35;;
43857;SDS011;29507;51.284;5.758;2022-11-20T12:09:41;30.98;;;13.23;;
43857;SDS011;29507;51.284;5.758;2022-11-20T12:12:20;36.45;;;14.30;;
43857;SDS011;29507;51.284;5.758;2022-11-20T12:14:52;31.65;;;13.73;;
43857;SDS011;29507;51.284;5.758;2022-11-20T12:17:19;33.65;;;12.93;;
43857;SDS011;29507;51.284;5.758;2022-11-20T12:19:45;33.63;;;13.43;;
43857;SDS011;29507;51.284;5.758;2022-11-20T12:24:57;30.02;;;13.50;;
43857;SDS011;29507;51.284;5.758;2022-11-20T12:33:04;33.22;;;12.25;;
43857;SDS011;29507;51.284;5.758;2022-11-20T12:58:16;33.80;;;14.45;;
43857;SDS011;29507;51.284;5.758;2022-11-20T13:01:30;34.10;;;14.82;;
43857;SDS011;29507;51.284;5.758;2022-11-20T13:04:24;32.20;;;12.50;;
43857;SDS011;29507;51.284;5.758;2022-11-20T13:06:57;34.45;;;13.43;;
43857;SDS011;29507;51.284;5.758;2022-11-20T13:09:23;33.40;;;14.02;;
43857;SDS011;29507;51.284;5.758;2022-11-20T13:11:54;35.35;;;13.65;;
43857;SDS011;29507;51.284;5.758;2022-11-20T13:20:12;35.20;;;13.73;;
43857;SDS011;29507;51.284;5.758;2022-11-20T13:22:47;39.03;;;14.05;;
43857;SDS011;29507;51.284;5.758;2022-11-20T13:27:59;32.92;;;14.38;;
43857;SDS011;29507;51.284;5.758;2022-11-20T13:30:29;32.22;;;14.15;;
43857;SDS011;29507;51.284;5.758;2022-11-20T13:35:36;33.17;;;13.43;;
43857;SDS011;29507;51.284;5.758;2022-11-20T13:38:09;37.88;;;13.90;;
43857;SDS011;29507;51.284;5.758;2022-11-20T13:43:48;34.13;;;13.60;;
43857;SDS011;29507;51.284;5.758;2022-11-20T13:46:13;39.95;;;14.57;;
43857;SDS011;29507;51.284;5.758;2022-11-20T13:48:43;35.13;;;13.25;;
43857;SDS011;29507;51.284;5.758;2022-11-20T14:02:02;35.03;;;13.93;;
43857;SDS011;29507;51.284;5.758;2022-11-20T14:04:34;35.17;;;14.57;;
43857;SDS011;29507;51.284;5.758;2022-11-20T14:07:07;38.67;;;14.75;;
43857;SDS011;29507;51.284;5.758;2022-11-20T14:09:34;36.50;;;14.10;;
43857;SDS011;29507;51.284;5.758;2022-11-20T14:12:01;29.58;;;12.75;;
43857;SDS011;29507;51.284;5.758;2022-11-20T14:14:28;31.75;;;13.77;;
43857;SDS011;29507;51.284;5.758;2022-11-20T14:17:08;32.63;;;14.25;;
43857;SDS011;29507;51.284;5.758;2022-11-20T14:19:42;35.45;;;13.73;;
43857;SDS011;29507;51.284;5.758;2022-11-20T14:22:18;33.45;;;13.30;;
43857;SDS011;29507;51.284;5.758;2022-11-20T14:25:00;30.77;;;14.00;;
43857;SDS011;29507;51.284;5.758;2022-11-20T14:27:59;33.05;;;14.30;;
43857;SDS011;29507;51.284;5.758;2022-11-20T14:30:27;35.53;;;14.38;;
43857;SDS011;29507;51.284;5.758;2022-11-20T14:33:09;34.67;;;13.70;;
43857;SDS011;29507;51.284;5.758;2022-11-20T14:35:40;35.85;;;14.20;;
43857;SDS011;29507;51.284;5.758;2022-11-20T14:38:14;35.95;;;14.23;;
43857;SDS011;29507;51.284;5.758;2022-11-20T14:40:41;34.45;;;13.85;;
43857;SDS011;29507;51.284;5.758;2022-11-20T14:43:19;36.28;;;12.93;;
43857;SDS011;29507;51.284;5.758;2022-11-20T14:45:55;32.20;;;12.20;;
43857;SDS011;29507;51.284;5.758;2022-11-20T14:48:31;33.45;;;12.48;;
43857;SDS011;29507;51.284;5.758;2022-11-20T14:51:02;38.72;;;13.23;;
43857;SDS011;29507;51.284;5.758;2022-11-20T14:53:27;34.60;;;12.07;;
43857;SDS011;29507;51.284;5.758;2022-11-20T14:55:57;33.35;;;11.93;;
43857;SDS011;29507;51.284;5.758;2022-11-20T14:58:29;29.58;;;11.27;;
43857;SDS011;29507;51.284;5.758;2022-11-20T15:01:02;31.00;;;11.50;;
43857;SDS011;29507;51.284;5.758;2022-11-20T15:03:31;33.75;;;11.90;;
43857;SDS011;29507;51.284;5.758;2022-11-20T15:06:09;28.98;;;10.38;;
43857;SDS011;29507;51.284;5.758;2022-11-20T15:08:37;31.23;;;11.45;;
43857;SDS011;29507;51.284;5.758;2022-11-20T15:11:03;35.03;;;11.73;;
43857;SDS011;29507;51.284;5.758;2022-11-20T15:13:46;34.58;;;12.63;;
43857;SDS011;29507;51.284;5.758;2022-11-20T15:16:21;27.65;;;11.18;;
43857;SDS011;29507;51.284;5.758;2022-11-20T15:18:48;35.38;;;12.35;;
43857;SDS011;29507;51.284;5.758;2022-11-20T15:21:16;30.85;;;11.85;;
43857;SDS011;29507;51.284;5.758;2022-11-20T15:23:43;30.55;;;11.70;;
43857;SDS011;29507;51.284;5.758;2022-11-20T15:26:10;35.92;;;13.55;;
43857;SDS011;29507;51.284;5.758;2022-11-20T15:28:41;33.08;;;12.32;;
43857;SDS011;29507;51.284;5.758;2022-11-20T15:31:12;30.33;;;12.93;;
43857;SDS011;29507;51.284;5.758;2022-11-20T15:33:39;34.08;;;12.23;;
43857;SDS011;29507;51.284;5.758;2022-11-20T15:36:05;33.92;;;11.90;;
43857;SDS011;29507;51.284;5.758;2022-11-20T15:38:31;27.13;;;11.25;;
43857;SDS011;29507;51.284;5.758;2022-11-20T15:40:57;25.17;;;9.60;;
43857;SDS011;29507;51.284;5.758;2022-11-20T15:43:23;27.80;;;9.55;;
43857;SDS011;29507;51.284;5.758;2022-11-20T15:48:20;21.75;;;7.32;;
43857;SDS011;29507;51.284;5.758;2022-11-20T15:53:34;17.85;;;6.20;;
43857;SDS011;29507;51.284;5.758;2022-11-20T15:56:00;16.70;;;6.47;;
43857;SDS011;29507;51.284;5.758;2022-11-20T15:58:26;16.98;;;6.35;;
43857;SDS011;29507;51.284;5.758;2022-11-20T16:00:52;12.40;;;4.90;;
43857;SDS011;29507;51.284;5.758;2022-11-20T16:03:18;12.88;;;4.70;;
43857;SDS011;29507;51.284;5.758;2022-11-20T16:05:44;11.10;;;4.55;;
43857;SDS011;29507;51.284;5.758;2022-11-20T16:08:10;7.25;;;2.80;;
43857;SDS011;29507;51.284;5.758;2022-11-20T16:10:36;7.90;;;2.80;;
43857;SDS011;29507;51.284;5.758;2022-11-20T16:13:01;5.53;;;2.40;;
43857;SDS011;29507;51.284;5.758;2022-11-20T16:15:51;4.13;;;2.28;;
43857;SDS011;29507;51.284;5.758;2022-11-20T16:18:23;11.65;;;2.75;;
43857;SDS011;29507;51.284;5.758;2022-11-20T16:23:19;5.38;;;2.63;;
43857;SDS011;29507;51.284;5.758;2022-11-20T16:25:45;3.88;;;2.03;;
43857;SDS011;29507;51.284;5.758;2022-11-20T16:28:11;4.82;;;2.33;;
43857;SDS011;29507;51.284;5.758;2022-11-20T16:30:38;4.55;;;2.33;;
43857;SDS011;29507;51.284;5.758;2022-11-20T16:33:04;5.43;;;3.20;;
43857;SDS011;29507;51.284;5.758;2022-11-20T16:35:38;4.20;;;2.30;;